createdAt,value
2019-02-23T00:01:16.792Z,27.47
2019-02-23T00:04:42.402Z,28.67
2019-02-23T00:08:08.118Z,28.73
2019-02-23T00:11:33.794Z,28.70
2019-02-23T00:14:59.479Z,29.63
2019-02-23T00:18:25.164Z,28.13
2019-02-23T00:21:50.764Z,27.67
2019-02-23T00:25:16.411Z,28.57
2019-02-23T00:28:42.053Z,31.07
2019-02-23T00:32:07.676Z,30.27
2019-02-23T00:35:33.753Z,29.37
2019-02-23T00:38:59.340Z,30.10
2019-02-23T00:42:25.287Z,28.47
2019-02-23T00:45:50.890Z,29.13
2019-02-23T00:49:17.147Z,28.23
2019-02-23T00:52:42.841Z,27.97
2019-02-23T00:56:08.493Z,27.60
2019-02-23T00:59:34.112Z,29.53
2019-02-23T01:02:59.706Z,27.27
2019-02-23T01:06:25.365Z,25.77
2019-02-23T01:09:51.319Z,31.17
2019-02-23T01:13:17.169Z,27.77
2019-02-23T01:16:43.100Z,29.10
2019-02-23T01:20:11.039Z,28.43
2019-02-23T01:23:36.685Z,28.87
2019-02-23T01:27:02.299Z,29.27
2019-02-23T01:30:27.930Z,28.27
2019-02-23T01:33:53.549Z,28.63
2019-02-23T01:37:19.206Z,30.43
2019-02-23T01:40:44.831Z,27.63
2019-02-23T01:44:10.451Z,29.00
2019-02-23T01:47:36.043Z,28.17
2019-02-23T01:51:01.644Z,29.20
2019-02-23T01:54:27.249Z,28.80
2019-02-23T01:57:52.901Z,26.13
2019-02-23T02:01:18.492Z,25.67
2019-02-23T02:04:44.150Z,25.80
2019-02-23T02:08:09.783Z,27.67
2019-02-23T02:11:35.520Z,27.67
2019-02-23T02:15:01.221Z,27.53
2019-02-23T02:18:27.044Z,24.83
2019-02-23T02:21:52.720Z,24.30
2019-02-23T02:25:18.716Z,26.77
2019-02-23T02:28:44.383Z,25.60
2019-02-23T02:32:10.025Z,26.33
2019-02-23T02:35:35.661Z,29.20
2019-02-23T02:39:01.281Z,28.43
2019-02-23T02:42:26.915Z,29.50
2019-02-23T02:45:52.605Z,28.10
2019-02-23T02:49:18.278Z,29.00
2019-02-23T02:52:43.946Z,29.60
2019-02-23T02:56:09.632Z,28.07
2019-02-23T02:59:35.267Z,27.10
2019-02-23T03:03:00.896Z,25.40
2019-02-23T03:06:26.927Z,26.43
2019-02-23T03:09:52.595Z,26.33
2019-02-23T03:13:18.189Z,27.23
2019-02-23T03:16:44.127Z,26.47
2019-02-23T03:20:10.554Z,28.13
2019-02-23T03:23:36.514Z,27.27
2019-02-23T03:27:02.129Z,25.13
2019-02-23T03:30:27.805Z,24.70
2019-02-23T03:33:53.411Z,23.73
2019-02-23T03:37:19.018Z,26.40
2019-02-23T03:40:44.658Z,26.87
2019-02-23T03:44:10.257Z,22.87
2019-02-23T03:47:35.889Z,26.10
2019-02-23T03:51:01.476Z,25.80
2019-02-23T03:54:27.103Z,24.67
2019-02-23T03:57:52.730Z,24.70
2019-02-23T04:01:18.381Z,22.20
2019-02-23T04:04:44.057Z,22.63
2019-02-23T04:08:09.811Z,21.23
2019-02-23T04:11:35.454Z,22.87
2019-02-23T04:15:01.689Z,21.83
2019-02-23T04:18:27.280Z,21.10
2019-02-23T04:21:52.934Z,20.37
2019-02-23T04:25:18.661Z,19.90
2019-02-23T04:28:44.293Z,19.27
2019-02-23T04:32:09.940Z,18.80
2019-02-23T04:35:35.900Z,18.93
2019-02-23T04:39:02.215Z,20.70
2019-02-23T04:42:27.873Z,20.07
2019-02-23T04:45:53.483Z,18.90
2019-02-23T04:49:19.161Z,18.57
2019-02-23T04:52:44.842Z,18.43
2019-02-23T04:56:10.453Z,19.77
2019-02-23T04:59:36.027Z,19.47
2019-02-23T05:03:01.672Z,21.93
2019-02-23T05:06:27.297Z,21.77
2019-02-23T05:09:52.898Z,21.30
2019-02-23T05:13:18.595Z,21.40
2019-02-23T05:16:44.218Z,20.30
2019-02-23T05:20:10.474Z,20.10
2019-02-23T05:23:36.077Z,20.50
2019-02-23T05:27:01.740Z,22.30
2019-02-23T05:30:31.560Z,22.77
2019-02-23T05:33:54.730Z,20.23
2019-02-23T05:37:20.347Z,22.20
2019-02-23T05:40:46.052Z,20.07
2019-02-23T05:44:11.700Z,20.87
2019-02-23T05:47:37.372Z,22.87
2019-02-23T05:51:03.041Z,21.17
2019-02-23T05:54:28.798Z,22.60
2019-02-23T05:57:54.438Z,21.83
2019-02-23T06:01:20.126Z,23.33
2019-02-23T06:04:48.130Z,21.50
2019-02-23T06:08:13.784Z,21.07
2019-02-23T06:11:39.342Z,22.97
2019-02-23T06:15:05.249Z,24.07
2019-02-23T06:18:31.117Z,23.90
2019-02-23T06:21:56.869Z,22.87
2019-02-23T06:25:22.934Z,21.03
2019-02-23T06:28:48.532Z,21.23
2019-02-23T06:32:14.228Z,20.30
2019-02-23T06:35:39.818Z,23.53
2019-02-23T06:39:06.444Z,21.63
2019-02-23T06:42:32.115Z,21.10
2019-02-23T06:45:57.825Z,22.43
2019-02-23T06:49:23.477Z,24.23
2019-02-23T06:52:49.163Z,23.03
2019-02-23T06:56:15.397Z,23.93
2019-02-23T06:59:41.165Z,24.00
2019-02-23T07:03:07.260Z,24.07
2019-02-23T07:06:34.018Z,26.23
2019-02-23T07:09:59.716Z,24.90
2019-02-23T07:13:25.367Z,24.43
2019-02-23T07:16:51.257Z,23.80
2019-02-23T07:20:43.728Z,22.23
2019-02-23T07:24:02.200Z,21.67
2019-02-23T07:27:27.842Z,20.47
2019-02-23T07:30:53.579Z,22.33
2019-02-23T07:34:28.015Z,22.70
2019-02-23T07:37:53.602Z,22.37
2019-02-23T07:41:19.400Z,18.17
2019-02-23T07:44:45.430Z,18.97
2019-02-23T07:48:12.452Z,19.27
2019-02-23T07:51:38.169Z,19.00
2019-02-23T07:55:03.686Z,19.90
2019-02-23T07:58:29.647Z,18.00
2019-02-23T08:01:55.286Z,21.00
2019-02-23T08:05:20.938Z,19.30
2019-02-23T08:08:46.675Z,19.80
2019-02-23T08:12:13.570Z,19.23
2019-02-23T08:15:39.555Z,17.57
2019-02-23T08:19:05.174Z,18.27
2019-02-23T08:22:37.427Z,17.80
2019-02-23T08:25:58.225Z,18.93
2019-02-23T08:29:23.859Z,17.37
2019-02-23T08:32:49.510Z,16.63
2019-02-23T08:36:15.331Z,16.63
2019-02-23T08:39:40.962Z,16.83
2019-02-23T08:43:06.663Z,17.03
2019-02-23T08:46:32.622Z,16.20
2019-02-23T08:49:58.338Z,17.10
2019-02-23T08:53:24.740Z,15.80
2019-02-23T08:56:50.397Z,15.07
2019-02-23T09:00:17.355Z,15.53
2019-02-23T09:03:43.129Z,14.93
2019-02-23T09:07:08.881Z,16.43
2019-02-23T09:10:34.558Z,16.03
2019-02-23T09:14:00.154Z,15.23
2019-02-23T09:17:25.856Z,15.37
2019-02-23T09:20:51.983Z,14.37
2019-02-23T09:24:17.933Z,14.30
2019-02-23T09:27:44.455Z,14.67
2019-02-23T09:31:10.144Z,16.70
2019-02-23T09:34:35.843Z,15.23
2019-02-23T09:38:03.265Z,16.20
2019-02-23T09:41:28.865Z,15.77
2019-02-23T09:44:54.607Z,14.80
2019-02-23T09:48:20.264Z,12.63
2019-02-23T09:51:45.998Z,14.00
2019-02-23T09:55:11.833Z,13.65
2019-02-23T09:58:37.445Z,13.65
2019-02-23T10:02:03.166Z,13.30
2019-02-23T10:05:29.080Z,12.20
2019-02-23T10:08:54.818Z,13.48
2019-02-23T10:12:20.557Z,13.90
2019-02-23T10:15:46.637Z,13.90
2019-02-23T10:19:12.551Z,12.43
2019-02-23T10:22:39.652Z,12.53
2019-02-23T10:26:06.010Z,12.18
2019-02-23T10:29:31.937Z,12.63
2019-02-23T10:32:57.745Z,12.80
2019-02-23T10:36:23.429Z,13.00
2019-02-23T10:39:49.020Z,11.93
2019-02-23T10:43:14.993Z,11.95
2019-02-23T10:46:39.957Z,13.98
2019-02-23T10:50:06.449Z,12.88
2019-02-23T10:53:33.066Z,12.90
2019-02-23T10:56:59.384Z,13.30
2019-02-23T11:00:25.825Z,14.03
2019-02-23T11:03:51.444Z,12.70
2019-02-23T11:07:17.374Z,12.58
2019-02-23T11:10:43.331Z,12.25
2019-02-23T11:14:09.034Z,12.33
2019-02-23T11:17:35.205Z,12.98
2019-02-23T11:21:00.946Z,12.10
2019-02-23T11:24:26.602Z,12.47
2019-02-23T11:27:53.498Z,12.73
2019-02-23T11:31:19.147Z,11.90
2019-02-23T11:34:44.860Z,12.88
2019-02-23T11:38:10.508Z,13.18
2019-02-23T11:41:36.122Z,10.63
2019-02-23T11:45:01.766Z,10.85
2019-02-23T11:48:27.464Z,15.13
2019-02-23T11:51:53.159Z,14.95
2019-02-23T11:55:19.695Z,12.50
2019-02-23T11:58:45.622Z,12.40
2019-02-23T12:02:11.245Z,14.68
2019-02-23T12:05:36.906Z,12.85
2019-02-23T12:09:02.814Z,14.78
2019-02-23T12:12:28.383Z,15.95
2019-02-23T12:15:54.046Z,13.90
2019-02-23T12:19:19.709Z,14.85
2019-02-23T12:22:45.386Z,14.60
2019-02-23T12:26:11.094Z,12.82
2019-02-23T12:29:36.735Z,9.08
2019-02-23T12:33:02.537Z,10.75
2019-02-23T12:36:28.446Z,16.17
2019-02-23T12:39:54.103Z,11.38
2019-02-23T12:43:19.755Z,9.90
2019-02-23T12:46:45.692Z,12.85
2019-02-23T12:50:11.450Z,23.40
2019-02-23T12:53:37.143Z,15.05
2019-02-23T12:57:02.749Z,11.55
2019-02-23T13:00:28.783Z,10.28
2019-02-23T13:03:54.448Z,9.15
2019-02-23T13:07:20.089Z,9.58
2019-02-23T13:10:46.274Z,9.68
2019-02-23T13:15:02.803Z,11.20
2019-02-23T13:19:30.789Z,10.98
2019-02-23T13:23:47.667Z,11.00
2019-02-23T13:28:02.523Z,9.45
2019-02-23T13:32:43.776Z,12.78
2019-02-23T13:37:45.827Z,10.30
2019-02-23T13:42:01.014Z,9.78
2019-02-23T13:46:08.357Z,9.40
2019-02-23T13:50:43.254Z,8.43
2019-02-23T13:55:13.842Z,9.65
2019-02-23T13:59:18.809Z,9.98
2019-02-23T14:03:27.531Z,8.95
2019-02-23T14:07:33.710Z,9.13
2019-02-23T14:12:11.974Z,9.18
2019-02-23T14:16:29.672Z,12.07
2019-02-23T14:20:26.553Z,9.38
2019-02-23T14:24:52.592Z,9.58
2019-02-23T14:29:34.573Z,7.80
2019-02-23T14:33:57.581Z,11.45
2019-02-23T14:38:20.123Z,8.28
2019-02-23T14:42:18.919Z,8.03
2019-02-23T14:46:54.554Z,7.17
2019-02-23T14:50:59.451Z,8.35
2019-02-23T14:55:04.347Z,8.83
2019-02-23T14:59:24.472Z,8.73
2019-02-23T15:04:00.466Z,7.55
2019-02-23T15:08:14.498Z,8.38
2019-02-23T15:16:17.496Z,8.08
2019-02-23T15:20:16.630Z,7.67
2019-02-23T15:24:36.239Z,7.55
2019-02-23T15:28:47.911Z,8.25
2019-02-23T15:33:14.957Z,7.35
2019-02-23T15:37:57.506Z,7.37
2019-02-23T15:42:18.916Z,8.03
2019-02-23T15:46:15.126Z,7.12
2019-02-23T15:49:40.793Z,7.10
2019-02-23T15:53:06.689Z,7.12
2019-02-23T15:56:32.458Z,7.78
2019-02-23T15:59:58.254Z,7.53
2019-02-23T16:03:23.855Z,8.48
2019-02-23T16:06:49.565Z,7.42
2019-02-23T16:10:17.769Z,6.67
2019-02-23T16:13:42.906Z,7.35
2019-02-23T16:17:08.556Z,7.17
2019-02-23T16:20:34.187Z,7.67
2019-02-23T16:24:01.822Z,7.37
2019-02-23T16:27:27.747Z,8.18
2019-02-23T16:30:53.437Z,7.60
2019-02-23T16:34:19.058Z,7.90
2019-02-23T16:37:44.757Z,8.65
2019-02-23T16:41:10.382Z,7.08
2019-02-23T16:44:36.038Z,7.37
2019-02-23T16:48:01.787Z,8.10
2019-02-23T16:51:27.432Z,6.80
2019-02-23T16:54:53.010Z,7.85
2019-02-23T16:58:18.737Z,7.90
2019-02-23T17:01:44.368Z,7.55
2019-02-23T17:05:10.412Z,7.50
2019-02-23T17:08:36.073Z,8.18
2019-02-23T17:12:02.013Z,7.67
2019-02-23T17:15:27.650Z,7.90
2019-02-23T17:18:53.339Z,6.95
2019-02-23T17:22:19.011Z,8.13
2019-02-23T17:25:44.627Z,7.40
2019-02-23T17:29:10.422Z,8.38
2019-02-23T17:32:36.108Z,7.50
2019-02-23T17:36:01.729Z,7.35
2019-02-23T17:39:27.426Z,6.83
2019-02-23T17:42:53.103Z,6.97
2019-02-23T17:46:19.110Z,7.70
2019-02-23T17:49:45.695Z,7.40
2019-02-23T17:53:11.492Z,7.53
2019-02-23T17:56:37.110Z,6.77
2019-02-23T18:00:02.817Z,7.07
2019-02-23T18:03:28.466Z,6.97
2019-02-23T18:06:54.055Z,6.80
2019-02-23T18:10:20.053Z,6.53
2019-02-23T18:13:45.682Z,8.73
2019-02-23T18:17:11.753Z,12.17
2019-02-23T18:20:37.417Z,27.80
2019-02-23T18:24:03.438Z,18.17
2019-02-23T18:27:29.115Z,12.80
2019-02-23T18:30:55.399Z,14.77
2019-02-23T18:34:21.405Z,18.90
2019-02-23T18:37:47.303Z,8.70
2019-02-23T18:41:12.983Z,34.03
2019-02-23T18:44:38.630Z,18.27
2019-02-23T18:48:04.238Z,8.53
2019-02-23T18:51:29.851Z,8.43
2019-02-23T18:54:55.725Z,8.20
2019-02-23T18:58:21.408Z,8.57
2019-02-23T19:01:47.047Z,8.77
2019-02-23T19:05:13.621Z,21.13
2019-02-23T19:08:39.261Z,8.97
2019-02-23T19:12:05.113Z,8.27
2019-02-23T19:15:30.831Z,8.90
2019-02-23T19:18:56.472Z,8.77
2019-02-23T19:22:22.101Z,8.50
2019-02-23T19:25:47.650Z,8.67
2019-02-23T19:29:16.420Z,9.30
2019-02-23T19:32:42.072Z,10.17
2019-02-23T19:36:07.756Z,9.83
2019-02-23T19:39:33.423Z,10.87
2019-02-23T19:42:59.015Z,9.47
2019-02-23T19:46:25.162Z,9.47
2019-02-23T19:49:53.814Z,9.93
2019-02-23T19:53:19.686Z,9.90
2019-02-23T19:56:47.046Z,9.40
2019-02-23T20:00:12.923Z,9.07
2019-02-23T20:03:38.542Z,10.30
2019-02-23T20:07:04.217Z,9.60
2019-02-23T20:10:29.837Z,10.37
2019-02-23T20:13:55.421Z,11.93
2019-02-23T20:17:21.028Z,11.40
2019-02-23T20:20:46.683Z,10.03
2019-02-23T20:24:12.360Z,11.10
2019-02-23T20:27:38.076Z,10.53
2019-02-23T20:31:03.678Z,11.97
2019-02-23T20:34:29.282Z,10.60
2019-02-23T20:37:55.234Z,10.90
2019-02-23T20:41:21.529Z,9.83
2019-02-23T20:44:47.191Z,11.93
2019-02-23T20:48:12.846Z,10.27
2019-02-23T20:51:38.563Z,11.57
2019-02-23T20:55:04.795Z,12.07
2019-02-23T20:58:30.489Z,12.87
2019-02-23T21:02:00.090Z,12.00
2019-02-23T21:05:26.078Z,12.30
2019-02-23T21:08:51.891Z,10.73
2019-02-23T21:12:17.692Z,10.90
2019-02-23T21:15:43.546Z,11.37
2019-02-23T21:19:09.458Z,12.83
2019-02-23T21:22:35.375Z,11.83
2019-02-23T21:26:01.384Z,13.50
2019-02-23T21:29:27.352Z,13.23
2019-02-23T21:32:52.974Z,15.87
2019-02-23T21:36:20.416Z,15.60
2019-02-23T21:39:46.163Z,16.83
2019-02-23T21:43:13.519Z,15.27
2019-02-23T21:46:39.775Z,15.57
2019-02-23T21:50:05.638Z,16.47
2019-02-23T21:53:32.193Z,14.20
2019-02-23T21:56:59.607Z,14.70
2019-02-23T22:00:25.270Z,15.90
2019-02-23T22:03:51.231Z,16.33
2019-02-23T22:07:16.919Z,18.20
2019-02-23T22:10:45.615Z,14.33
2019-02-23T22:14:11.832Z,13.70
2019-02-23T22:17:37.681Z,13.90
2019-02-23T22:21:03.814Z,12.87
2019-02-23T22:24:29.935Z,14.03
2019-02-23T22:27:57.125Z,14.00
2019-02-23T22:31:22.969Z,14.70
2019-02-23T22:34:48.679Z,14.93
2019-02-23T22:38:14.258Z,13.97
2019-02-23T22:41:39.978Z,14.70
2019-02-23T22:45:08.145Z,13.50
2019-02-23T22:48:33.957Z,13.23
2019-02-23T22:51:59.540Z,12.93
2019-02-23T22:55:25.352Z,11.77
2019-02-23T22:58:51.177Z,12.90
2019-02-23T23:02:17.192Z,12.27
2019-02-23T23:05:43.125Z,11.70
2019-02-23T23:09:14.963Z,13.60
2019-02-23T23:12:42.506Z,12.70
2019-02-23T23:16:08.398Z,13.03
2019-02-23T23:19:34.264Z,13.53
2019-02-23T23:23:00.073Z,14.30
2019-02-23T23:26:25.725Z,13.70
2019-02-23T23:29:51.628Z,13.03
2019-02-23T23:33:18.132Z,13.50
2019-02-23T23:36:44.096Z,15.17
2019-02-23T23:40:09.854Z,14.80
2019-02-23T23:43:35.776Z,18.00
2019-02-23T23:47:01.485Z,16.07
2019-02-23T23:50:27.490Z,17.37
2019-02-23T23:53:53.141Z,16.13
2019-02-23T23:57:18.754Z,14.23
